createdAt,value
2018-02-12T00:01:14.403Z,5.23
2018-02-12T00:03:43.274Z,6.80
2018-02-12T00:06:12.155Z,6.50
2018-02-12T00:08:41.019Z,4.90
2018-02-12T00:11:09.870Z,6.00
2018-02-12T00:13:38.730Z,6.17
2018-02-12T00:16:07.574Z,6.40
2018-02-12T00:18:36.446Z,5.80
2018-02-12T00:21:05.294Z,6.17
2018-02-12T00:23:34.158Z,5.30
2018-02-12T00:26:03.074Z,6.87
2018-02-12T00:28:31.958Z,7.20
2018-02-12T00:31:00.831Z,5.23
2018-02-12T00:33:29.691Z,5.23
2018-02-12T00:35:58.567Z,5.93
2018-02-12T00:38:27.414Z,6.77
2018-02-12T00:40:56.459Z,5.53
2018-02-12T00:43:25.312Z,5.90
2018-02-12T00:45:54.231Z,5.30
2018-02-12T00:48:23.087Z,5.50
2018-02-12T00:50:51.962Z,6.50
2018-02-12T00:53:20.833Z,4.93
2018-02-12T00:55:49.713Z,4.90
2018-02-12T00:58:18.585Z,5.10
2018-02-12T01:00:47.462Z,5.80
2018-02-12T01:03:16.331Z,4.90
2018-02-12T01:05:45.205Z,4.93
2018-02-12T01:08:14.080Z,4.40
2018-02-12T01:10:42.948Z,5.17
2018-02-12T01:13:11.790Z,4.40
2018-02-12T01:15:40.642Z,4.70
2018-02-12T01:18:09.524Z,4.67
2018-02-12T01:20:38.378Z,4.83
2018-02-12T01:23:07.260Z,4.57
2018-02-12T01:25:36.110Z,4.70
2018-02-12T01:28:04.970Z,4.20
2018-02-12T01:30:33.832Z,4.40
2018-02-12T01:33:02.707Z,4.53
2018-02-12T01:35:31.564Z,4.67
2018-02-12T01:38:00.434Z,4.20
2018-02-12T01:40:29.291Z,4.53
2018-02-12T01:42:58.164Z,4.50
2018-02-12T01:45:27.028Z,4.43
2018-02-12T01:47:55.910Z,4.27
2018-02-12T01:50:24.767Z,3.13
2018-02-12T01:52:53.652Z,4.30
2018-02-12T01:55:22.507Z,5.20
2018-02-12T01:57:51.478Z,5.90
2018-02-12T02:00:20.322Z,4.63
2018-02-12T02:02:49.227Z,3.90
2018-02-12T02:05:18.087Z,3.80
2018-02-12T02:07:46.940Z,5.13
2018-02-12T02:10:15.822Z,4.77
2018-02-12T02:12:44.675Z,4.70
2018-02-12T02:15:13.552Z,4.20
2018-02-12T02:17:42.402Z,3.90
2018-02-12T02:20:11.274Z,4.43
2018-02-12T02:22:40.124Z,4.53
2018-02-12T02:25:09.002Z,4.67
2018-02-12T02:27:37.858Z,4.93
2018-02-12T02:30:06.873Z,5.57
2018-02-12T02:32:35.740Z,4.40
2018-02-12T02:35:04.738Z,4.67
2018-02-12T02:37:33.584Z,4.27
2018-02-12T02:40:02.446Z,5.40
2018-02-12T02:42:31.297Z,4.33
2018-02-12T02:45:00.172Z,4.83
2018-02-12T02:47:29.022Z,5.30
2018-02-12T02:49:57.888Z,4.63
2018-02-12T02:52:26.744Z,4.80
2018-02-12T02:54:55.610Z,4.97
2018-02-12T02:57:24.468Z,6.00
2018-02-12T02:59:53.451Z,4.63
2018-02-12T03:02:22.294Z,5.20
2018-02-12T03:04:51.148Z,5.07
2018-02-12T03:07:20.030Z,5.70
2018-02-12T03:09:48.896Z,5.23
2018-02-12T03:12:17.776Z,5.60
2018-02-12T03:14:46.632Z,5.40
2018-02-12T03:17:15.498Z,4.73
2018-02-12T03:19:44.362Z,5.03
2018-02-12T03:22:13.226Z,5.87
2018-02-12T03:24:42.084Z,5.50
2018-02-12T03:27:10.963Z,4.93
2018-02-12T03:29:39.832Z,5.57
2018-02-12T03:32:08.714Z,5.90
2018-02-12T03:34:37.572Z,5.37
2018-02-12T03:37:06.437Z,5.73
2018-02-12T03:39:35.286Z,5.70
2018-02-12T03:42:04.134Z,5.20
2018-02-12T03:44:32.998Z,5.80
2018-02-12T03:47:01.846Z,5.50
2018-02-12T03:49:30.709Z,6.43
2018-02-12T03:51:59.575Z,6.60
2018-02-12T03:54:28.518Z,6.20
2018-02-12T03:56:57.380Z,6.33
2018-02-12T03:59:26.242Z,6.47
2018-02-12T04:01:55.104Z,6.20
2018-02-12T04:04:23.970Z,6.20
2018-02-12T04:06:52.818Z,6.00
2018-02-12T04:09:21.683Z,5.40
2018-02-12T04:11:50.539Z,5.57
2018-02-12T04:14:19.414Z,5.77
2018-02-12T04:16:48.275Z,6.23
2018-02-12T04:19:17.578Z,6.20
2018-02-12T04:21:46.429Z,8.13
2018-02-12T04:24:15.398Z,8.07
2018-02-12T04:26:44.251Z,5.93
2018-02-12T04:29:13.109Z,6.90
2018-02-12T04:31:41.981Z,7.40
2018-02-12T04:34:10.871Z,7.37
2018-02-12T04:36:39.745Z,7.03
2018-02-12T04:39:08.593Z,6.67
2018-02-12T04:41:37.473Z,6.20
2018-02-12T04:44:06.322Z,7.30
2018-02-12T04:46:35.190Z,6.73
2018-02-12T04:49:04.042Z,7.00
2018-02-12T04:51:32.902Z,6.23
2018-02-12T04:54:01.755Z,6.37
2018-02-12T04:56:30.635Z,7.17
2018-02-12T04:58:59.496Z,7.00
2018-02-12T05:01:28.362Z,6.60
2018-02-12T05:03:57.214Z,5.50
2018-02-12T05:06:26.090Z,6.93
2018-02-12T05:08:54.944Z,5.93
2018-02-12T05:11:23.812Z,6.53
2018-02-12T05:13:52.667Z,6.20
2018-02-12T05:16:21.520Z,7.00
2018-02-12T05:18:50.431Z,6.20
2018-02-12T05:21:19.286Z,6.57
2018-02-12T05:23:48.151Z,6.40
2018-02-12T05:26:17.001Z,6.93
2018-02-12T05:28:45.866Z,7.10
2018-02-12T05:31:14.720Z,5.90
2018-02-12T05:33:43.597Z,7.30
2018-02-12T05:36:12.460Z,5.80
2018-02-12T05:38:41.327Z,7.03
2018-02-12T05:41:10.185Z,5.67
2018-02-12T05:43:39.063Z,5.93
2018-02-12T05:46:07.923Z,6.50
2018-02-12T05:48:36.817Z,6.50
2018-02-12T05:51:05.670Z,6.83
2018-02-12T05:53:34.519Z,6.47
2018-02-12T05:56:03.396Z,5.77
2018-02-12T05:58:32.259Z,6.00
2018-02-12T06:01:01.142Z,5.30
2018-02-12T06:03:29.999Z,5.67
2018-02-12T06:05:59.171Z,5.67
2018-02-12T06:08:28.130Z,5.70
2018-02-12T06:10:57.062Z,5.77
2018-02-12T06:13:25.875Z,6.93
2018-02-12T06:15:54.746Z,4.77
2018-02-12T06:18:23.601Z,5.90
2018-02-12T06:20:52.476Z,7.90
2018-02-12T06:23:21.326Z,4.80
2018-02-12T06:25:50.190Z,5.17
2018-02-12T06:28:19.047Z,5.53
2018-02-12T06:30:47.924Z,6.30
2018-02-12T06:33:16.770Z,6.40
2018-02-12T06:35:45.639Z,6.60
2018-02-12T06:38:14.487Z,5.30
2018-02-12T06:40:43.358Z,6.00
2018-02-12T06:43:12.220Z,5.40
2018-02-12T06:45:41.105Z,6.03
2018-02-12T06:48:09.963Z,5.50
2018-02-12T06:50:38.830Z,4.70
2018-02-12T06:53:07.675Z,5.00
2018-02-12T06:55:36.563Z,4.90
2018-02-12T06:58:05.424Z,5.27
2018-02-12T07:00:34.290Z,4.70
2018-02-12T07:03:03.160Z,4.03
2018-02-12T07:05:32.050Z,5.23
2018-02-12T07:08:00.904Z,5.50
2018-02-12T07:10:29.775Z,4.80
2018-02-12T07:12:58.631Z,4.67
2018-02-12T07:15:27.528Z,5.57
2018-02-12T07:17:56.392Z,4.97
2018-02-12T07:20:25.282Z,4.63
2018-02-12T07:22:54.132Z,6.30
2018-02-12T07:25:22.982Z,5.77
2018-02-12T07:27:51.847Z,5.37
2018-02-12T07:30:20.701Z,5.40
2018-02-12T07:32:49.571Z,5.30
2018-02-12T07:35:18.427Z,4.60
2018-02-12T07:37:47.298Z,4.90
2018-02-12T07:40:16.152Z,4.27
2018-02-12T07:42:45.027Z,4.80
2018-02-12T07:45:13.878Z,4.80
2018-02-12T07:47:42.742Z,4.30
2018-02-12T07:50:11.598Z,5.37
2018-02-12T07:52:40.471Z,4.73
2018-02-12T07:55:09.322Z,5.43
2018-02-12T07:57:38.191Z,4.23
2018-02-12T08:00:07.058Z,5.90
2018-02-12T08:02:35.936Z,4.63
2018-02-12T08:05:04.801Z,3.93
2018-02-12T08:07:33.654Z,4.97
2018-02-12T08:10:02.530Z,5.07
2018-02-12T08:12:31.387Z,5.00
2018-02-12T08:15:00.250Z,4.73
2018-02-12T08:17:29.118Z,4.90
2018-02-12T08:19:57.978Z,4.50
2018-02-12T08:22:26.842Z,5.10
2018-02-12T08:24:55.718Z,5.27
2018-02-12T08:27:24.562Z,4.30
2018-02-12T08:29:53.428Z,5.57
2018-02-12T08:32:22.284Z,5.67
2018-02-12T08:34:51.178Z,5.73
2018-02-12T08:37:20.036Z,4.83
2018-02-12T08:39:48.921Z,4.77
2018-02-12T08:42:17.766Z,4.97
2018-02-12T08:44:46.635Z,5.70
2018-02-12T08:47:15.484Z,4.37
2018-02-12T08:49:44.348Z,4.73
2018-02-12T08:52:13.198Z,5.00
2018-02-12T08:54:42.097Z,4.50
2018-02-12T08:57:10.952Z,9.67
2018-02-12T08:59:39.810Z,10.03
2018-02-12T09:02:08.737Z,11.77
2018-02-12T09:04:37.590Z,10.40
2018-02-12T09:07:06.466Z,10.80
2018-02-12T09:09:35.322Z,10.43
2018-02-12T09:12:04.191Z,9.93
2018-02-12T09:14:33.050Z,10.80
2018-02-12T09:17:01.922Z,9.97
2018-02-12T09:19:30.789Z,10.50
2018-02-12T09:21:59.672Z,10.30
2018-02-12T09:24:28.534Z,9.97
2018-02-12T09:26:57.412Z,10.03
2018-02-12T09:29:26.263Z,9.73
2018-02-12T09:31:55.124Z,9.63
2018-02-12T09:34:23.996Z,11.40
2018-02-12T09:36:52.877Z,9.93
2018-02-12T09:39:21.746Z,10.50
2018-02-12T09:41:50.623Z,8.97
2018-02-12T09:44:19.472Z,9.70
2018-02-12T09:46:48.446Z,9.10
2018-02-12T09:49:17.304Z,9.40
2018-02-12T09:51:46.201Z,9.37
2018-02-12T09:54:15.054Z,11.70
2018-02-12T09:56:43.915Z,11.40
2018-02-12T09:59:12.790Z,10.00
2018-02-12T10:01:41.644Z,10.10
2018-02-12T10:04:10.509Z,9.27
2018-02-12T10:06:39.366Z,10.80
2018-02-12T10:09:08.312Z,10.27
2018-02-12T10:11:37.172Z,10.77
2018-02-12T10:14:06.048Z,10.53
2018-02-12T10:16:34.902Z,9.20
2018-02-12T10:19:03.783Z,10.17
2018-02-12T10:21:32.634Z,10.87
2018-02-12T10:24:01.518Z,10.70
2018-02-12T10:26:30.398Z,10.37
2018-02-12T10:28:59.288Z,10.43
2018-02-12T10:31:28.158Z,10.23
2018-02-12T10:33:57.057Z,9.37
2018-02-12T10:36:25.940Z,10.87
2018-02-12T10:38:54.830Z,10.50
2018-02-12T10:41:23.703Z,9.13
2018-02-12T10:43:52.606Z,12.70
2018-02-12T10:46:21.471Z,9.57
2018-02-12T10:48:50.389Z,8.97
2018-02-12T10:51:19.274Z,9.33
2018-02-12T10:53:48.135Z,9.17
2018-02-12T10:56:17.014Z,9.40
2018-02-12T10:58:45.876Z,9.20
2018-02-12T11:01:14.760Z,8.57
2018-02-12T11:03:43.649Z,9.67
2018-02-12T11:06:12.539Z,9.20
2018-02-12T11:08:41.446Z,9.07
2018-02-12T11:11:10.329Z,8.83
2018-02-12T11:13:39.188Z,9.47
2018-02-12T11:16:08.108Z,9.53
2018-02-12T11:18:36.983Z,10.57
2018-02-12T11:21:05.900Z,8.87
2018-02-12T11:23:34.772Z,9.50
2018-02-12T11:26:03.654Z,8.67
2018-02-12T11:28:32.586Z,8.17
2018-02-12T11:31:01.483Z,7.90
2018-02-12T11:33:30.408Z,7.73
2018-02-12T11:35:59.270Z,8.10
2018-02-12T11:38:28.222Z,7.47
2018-02-12T11:40:57.108Z,8.90
2018-02-12T11:43:25.994Z,6.93
2018-02-12T11:45:54.910Z,6.53
2018-02-12T11:48:23.798Z,8.33
2018-02-12T11:50:52.709Z,8.67
2018-02-12T11:53:21.584Z,9.30
2018-02-12T11:55:50.479Z,9.97
2018-02-12T11:58:19.370Z,6.90
2018-02-12T12:00:48.273Z,7.60
2018-02-12T12:03:17.126Z,8.50
2018-02-12T12:05:46.044Z,7.40
2018-02-12T12:08:14.990Z,10.10
2018-02-12T12:10:43.856Z,6.30
2018-02-12T12:13:12.750Z,6.63
2018-02-12T12:15:41.611Z,6.90
2018-02-12T12:18:10.523Z,7.30
2018-02-12T12:20:39.412Z,8.00
2018-02-12T12:23:08.348Z,6.60
2018-02-12T12:25:37.213Z,7.30
2018-02-12T12:28:06.087Z,7.30
2018-02-12T12:30:34.960Z,7.30
2018-02-12T12:33:04.651Z,7.23
2018-02-12T12:35:33.506Z,6.13
2018-02-12T12:38:02.385Z,5.77
2018-02-12T12:40:31.241Z,6.60
2018-02-12T12:43:00.152Z,6.27
2018-02-12T12:45:29.022Z,5.70
2018-02-12T12:47:57.945Z,9.03
2018-02-12T12:50:26.820Z,6.87
2018-02-12T12:52:55.714Z,5.30
2018-02-12T12:55:24.593Z,7.03
2018-02-12T12:57:53.499Z,5.37
2018-02-12T13:00:22.380Z,6.10
2018-02-12T13:02:51.264Z,3.50
2018-02-12T13:05:20.156Z,4.20
2018-02-12T13:07:49.026Z,4.20
2018-02-12T13:10:17.942Z,3.70
2018-02-12T13:12:46.810Z,4.63
2018-02-12T13:15:15.700Z,6.33
2018-02-12T13:17:44.555Z,5.00
2018-02-12T13:20:13.464Z,3.67
2018-02-12T13:22:42.340Z,3.27
2018-02-12T13:25:11.249Z,5.57
2018-02-12T13:27:38.803Z,4.73
2018-02-12T13:30:07.683Z,4.77
2018-02-12T13:32:36.539Z,4.20
2018-02-12T13:35:05.402Z,3.50
2018-02-12T13:37:34.250Z,5.07
2018-02-12T13:40:03.114Z,3.00
2018-02-12T13:42:31.980Z,3.30
2018-02-12T13:45:00.890Z,4.30
2018-02-12T13:47:29.734Z,2.67
2018-02-12T13:49:58.582Z,5.50
2018-02-12T13:52:27.467Z,4.00
2018-02-12T13:54:56.345Z,3.30
2018-02-12T13:57:25.236Z,5.00
2018-02-12T13:59:54.115Z,3.50
2018-02-12T14:02:23.024Z,3.43
2018-02-12T14:04:51.888Z,3.00
2018-02-12T14:07:20.776Z,4.83
2018-02-12T14:09:49.653Z,3.07
2018-02-12T14:12:18.552Z,5.40
2018-02-12T14:14:47.430Z,5.03
2018-02-12T14:17:16.306Z,2.67
2018-02-12T14:19:45.173Z,3.63
2018-02-12T14:22:14.072Z,7.03
2018-02-12T14:24:42.925Z,4.03
2018-02-12T14:27:11.798Z,2.90
2018-02-12T14:29:40.693Z,3.47
2018-02-12T14:32:09.609Z,2.67
2018-02-12T14:34:38.474Z,3.30
2018-02-12T14:37:07.335Z,2.70
2018-02-12T14:39:36.209Z,3.17
2018-02-12T14:42:05.070Z,3.70
2018-02-12T14:44:33.951Z,3.07
2018-02-12T14:47:02.834Z,2.70
2018-02-12T14:49:31.706Z,5.57
2018-02-12T14:52:00.580Z,7.10
2018-02-12T14:54:29.478Z,3.73
2018-02-12T14:56:58.666Z,2.50
2018-02-12T14:59:27.544Z,5.73
2018-02-12T15:01:56.394Z,4.27
2018-02-12T15:04:25.294Z,5.00
2018-02-12T15:06:54.161Z,4.30
2018-02-12T15:09:23.066Z,3.80
2018-02-12T15:11:51.941Z,3.93
2018-02-12T15:14:20.810Z,3.30
2018-02-12T15:16:49.682Z,5.00
2018-02-12T15:19:18.541Z,5.83
2018-02-12T15:21:47.458Z,4.70
2018-02-12T15:24:16.321Z,5.20
2018-02-12T15:26:45.213Z,6.00
2018-02-12T15:29:14.081Z,3.77
2018-02-12T15:31:42.975Z,3.60
2018-02-12T15:34:11.826Z,5.03
2018-02-12T15:36:40.735Z,5.20
2018-02-12T15:39:09.593Z,3.47
2018-02-12T15:41:38.473Z,4.10
2018-02-12T15:44:07.354Z,6.00
2018-02-12T15:46:36.226Z,3.33
2018-02-12T15:49:05.066Z,3.23
2018-02-12T15:51:33.950Z,3.37
2018-02-12T15:54:02.804Z,3.10
2018-02-12T15:56:31.764Z,3.90
2018-02-12T15:59:00.713Z,3.97
2018-02-12T16:01:29.628Z,3.20
2018-02-12T16:03:58.474Z,3.80
2018-02-12T16:06:27.318Z,3.17
2018-02-12T16:08:56.181Z,4.17
2018-02-12T16:11:25.039Z,3.93
2018-02-12T16:13:53.926Z,3.53
2018-02-12T16:16:22.859Z,2.63
2018-02-12T16:18:51.920Z,4.37
2018-02-12T16:21:20.904Z,3.80
2018-02-12T16:23:49.858Z,2.50
2018-02-12T16:26:18.756Z,2.73
2018-02-12T16:28:47.634Z,4.63
2018-02-12T16:31:16.487Z,2.83
2018-02-12T16:33:45.478Z,3.57
2018-02-12T16:36:14.372Z,3.27
2018-02-12T16:38:43.318Z,4.03
2018-02-12T16:41:12.171Z,3.23
2018-02-12T16:43:41.063Z,3.73
2018-02-12T16:46:09.919Z,2.90
2018-02-12T16:48:38.766Z,3.00
2018-02-12T16:51:07.669Z,3.40
2018-02-12T16:53:36.523Z,2.97
2018-02-12T16:56:05.428Z,3.50
2018-02-12T16:58:34.282Z,5.20
2018-02-12T17:01:03.150Z,3.40
2018-02-12T17:03:32.005Z,3.40
2018-02-12T17:06:00.887Z,4.70
2018-02-12T17:08:29.784Z,5.70
2018-02-12T17:10:58.651Z,3.93
2018-02-12T17:13:27.542Z,5.30
2018-02-12T17:15:56.422Z,3.97
2018-02-12T17:18:25.280Z,4.30
2018-02-12T17:20:54.146Z,4.00
2018-02-12T17:23:23.001Z,4.17
2018-02-12T17:25:51.881Z,5.13
2018-02-12T17:28:20.734Z,3.30
2018-02-12T17:30:49.595Z,3.90
2018-02-12T17:33:18.450Z,4.80
2018-02-12T17:35:47.318Z,4.57
2018-02-12T17:38:16.167Z,4.17
2018-02-12T17:40:45.053Z,4.30
2018-02-12T17:43:13.931Z,4.30
2018-02-12T17:45:42.803Z,5.73
2018-02-12T17:48:11.663Z,5.10
2018-02-12T17:50:40.510Z,4.73
2018-02-12T17:53:09.435Z,4.63
2018-02-12T17:55:38.286Z,4.07
2018-02-12T17:58:07.207Z,4.00
2018-02-12T18:00:36.070Z,5.10
2018-02-12T18:03:04.946Z,2.93
2018-02-12T18:05:33.795Z,5.10
2018-02-12T18:08:02.663Z,3.90
2018-02-12T18:10:31.523Z,3.47
2018-02-12T18:13:00.394Z,3.60
2018-02-12T18:15:29.266Z,4.73
2018-02-12T18:17:58.135Z,5.03
2018-02-12T18:20:27.013Z,3.97
2018-02-12T18:22:55.896Z,4.40
2018-02-12T18:25:24.765Z,3.60
2018-02-12T18:27:53.627Z,4.40
2018-02-12T18:30:22.478Z,4.20
2018-02-12T18:32:51.374Z,3.50
2018-02-12T18:35:20.256Z,4.27
2018-02-12T18:37:49.144Z,4.37
2018-02-12T18:40:18.018Z,4.30
2018-02-12T18:42:46.870Z,4.60
2018-02-12T18:45:15.740Z,4.50
2018-02-12T18:47:44.586Z,4.60
2018-02-12T18:50:13.446Z,4.20
2018-02-12T18:52:42.290Z,3.80
2018-02-12T18:55:11.158Z,4.00
2018-02-12T18:57:40.015Z,4.00
2018-02-12T19:00:08.882Z,6.30
2018-02-12T19:02:37.726Z,4.77
2018-02-12T19:05:06.590Z,5.07
2018-02-12T19:07:35.433Z,4.20
2018-02-12T19:10:04.316Z,4.03
2018-02-12T19:12:33.172Z,4.60
2018-02-12T19:15:02.023Z,4.20
2018-02-12T19:17:30.894Z,5.80
2018-02-12T19:19:59.760Z,4.63
2018-02-12T19:22:28.630Z,4.47
2018-02-12T19:24:57.504Z,4.60
2018-02-12T19:27:26.366Z,4.40
2018-02-12T19:29:55.223Z,5.27
2018-02-12T19:32:24.090Z,6.07
2018-02-12T19:34:52.947Z,4.30
2018-02-12T19:37:21.836Z,6.97
2018-02-12T19:39:50.682Z,4.77
2018-02-12T19:42:19.550Z,4.77
2018-02-12T19:44:48.422Z,4.63
2018-02-12T19:47:17.287Z,5.03
2018-02-12T19:49:46.134Z,5.47
2018-02-12T19:52:15.004Z,5.60
2018-02-12T19:54:43.862Z,5.80
2018-02-12T19:57:12.722Z,6.47
2018-02-12T19:59:41.592Z,8.00
2018-02-12T20:02:10.480Z,8.20
2018-02-12T20:04:39.326Z,7.10
2018-02-12T20:07:08.214Z,6.47
2018-02-12T20:09:37.087Z,7.00
2018-02-12T20:12:05.962Z,5.43
2018-02-12T20:14:34.830Z,5.40
2018-02-12T20:17:03.693Z,5.30
2018-02-12T20:19:32.582Z,4.87
2018-02-12T20:22:01.430Z,6.20
2018-02-12T20:24:30.293Z,5.43
2018-02-12T20:26:59.150Z,6.87
2018-02-12T20:29:28.044Z,5.67
2018-02-12T20:31:56.919Z,4.80
2018-02-12T20:34:25.786Z,5.77
2018-02-12T20:36:54.645Z,4.07
2018-02-12T20:39:23.514Z,7.27
2018-02-12T20:41:52.370Z,6.13
2018-02-12T20:44:21.245Z,5.57
2018-02-12T20:46:50.185Z,6.73
2018-02-12T20:49:19.052Z,7.13
2018-02-12T20:51:47.918Z,6.00
2018-02-12T20:54:16.792Z,6.17
2018-02-12T20:56:45.656Z,6.27
2018-02-12T20:59:14.523Z,7.00
2018-02-12T21:01:43.386Z,6.40
2018-02-12T21:04:12.244Z,6.90
2018-02-12T21:06:41.123Z,9.07
2018-02-12T21:09:09.988Z,4.60
2018-02-12T21:11:38.858Z,6.67
2018-02-12T21:14:07.706Z,6.73
2018-02-12T21:16:36.584Z,7.63
2018-02-12T21:19:05.434Z,6.43
2018-02-12T21:21:34.298Z,6.77
2018-02-12T21:24:03.156Z,8.27
2018-02-12T21:26:32.054Z,6.83
2018-02-12T21:29:00.920Z,7.83
2018-02-12T21:31:29.776Z,6.07
2018-02-12T21:33:58.638Z,7.10
2018-02-12T21:36:27.500Z,6.70
2018-02-12T21:38:56.406Z,6.43
2018-02-12T21:41:25.266Z,7.17
2018-02-12T21:43:54.135Z,8.03
2018-02-12T21:46:22.998Z,6.80
2018-02-12T21:48:51.880Z,8.00
2018-02-12T21:51:20.744Z,10.23
2018-02-12T21:53:49.616Z,7.60
2018-02-12T21:56:18.478Z,7.57
2018-02-12T21:58:47.348Z,8.00
2018-02-12T22:01:16.203Z,9.57
2018-02-12T22:03:45.079Z,10.50
2018-02-12T22:06:13.926Z,7.27
2018-02-12T22:08:42.806Z,7.60
2018-02-12T22:11:11.666Z,6.77
2018-02-12T22:13:40.561Z,6.10
2018-02-12T22:16:09.416Z,6.47
2018-02-12T22:18:38.267Z,7.17
2018-02-12T22:21:07.144Z,11.80
2018-02-12T22:23:36.004Z,7.07
2018-02-12T22:26:04.870Z,7.20
2018-02-12T22:28:33.761Z,6.73
2018-02-12T22:31:02.660Z,6.27
2018-02-12T22:33:31.506Z,6.47
2018-02-12T22:36:00.386Z,5.87
2018-02-12T22:38:29.234Z,6.23
2018-02-12T22:40:58.099Z,10.80
2018-02-12T22:43:26.953Z,9.60
2018-02-12T22:45:55.828Z,9.80
2018-02-12T22:48:24.677Z,8.17
2018-02-12T22:50:53.542Z,9.67
2018-02-12T22:53:22.424Z,9.60
2018-02-12T22:55:51.324Z,9.30
2018-02-12T22:58:20.192Z,10.90
2018-02-12T23:00:49.046Z,9.97
2018-02-12T23:03:17.930Z,9.20
2018-02-12T23:05:46.802Z,9.97
2018-02-12T23:08:15.671Z,8.07
2018-02-12T23:10:44.529Z,7.40
2018-02-12T23:13:13.395Z,8.73
2018-02-12T23:15:42.238Z,7.20
2018-02-12T23:18:11.112Z,7.80
2018-02-12T23:20:39.967Z,8.50
2018-02-12T23:23:08.839Z,8.03
2018-02-12T23:25:37.692Z,7.50
2018-02-12T23:28:06.591Z,8.57
2018-02-12T23:30:35.439Z,9.47
2018-02-12T23:33:04.305Z,8.87
2018-02-12T23:35:33.353Z,9.33
2018-02-12T23:38:02.186Z,10.87
2018-02-12T23:40:31.060Z,9.63
2018-02-12T23:42:59.910Z,9.60
2018-02-12T23:45:28.787Z,10.87
2018-02-12T23:47:57.642Z,14.23
2018-02-12T23:50:26.520Z,11.23
2018-02-12T23:52:55.388Z,12.53
2018-02-12T23:55:24.262Z,12.37
2018-02-12T23:57:53.114Z,11.73
